sensor_id;sensor_type;location;lat;lon;timestamp;P1;durP1;ratioP1;P2;durP2;ratioP2
59734;SDS011;64362;45.620;4.920;2024-01-27T00:01:13;4.40;;;1.40;;
59734;SDS011;64362;45.620;4.920;2024-01-27T00:03:39;3.47;;;1.33;;
59734;SDS011;64362;45.620;4.920;2024-01-27T00:06:04;2.25;;;1.20;;
59734;SDS011;64362;45.620;4.920;2024-01-27T00:08:30;3.47;;;1.27;;
59734;SDS011;64362;45.620;4.920;2024-01-27T00:10:55;3.10;;;1.35;;
59734;SDS011;64362;45.620;4.920;2024-01-27T00:13:21;2.15;;;1.33;;
59734;SDS011;64362;45.620;4.920;2024-01-27T00:15:46;3.28;;;1.40;;
59734;SDS011;64362;45.620;4.920;2024-01-27T00:18:12;2.75;;;1.35;;
59734;SDS011;64362;45.620;4.920;2024-01-27T00:20:37;2.20;;;1.23;;
59734;SDS011;64362;45.620;4.920;2024-01-27T00:23:03;2.47;;;1.20;;
59734;SDS011;64362;45.620;4.920;2024-01-27T00:25:29;3.35;;;1.48;;
59734;SDS011;64362;45.620;4.920;2024-01-27T00:27:54;2.70;;;1.27;;
59734;SDS011;64362;45.620;4.920;2024-01-27T00:30:20;2.75;;;1.23;;
59734;SDS011;64362;45.620;4.920;2024-01-27T00:32:45;2.30;;;1.10;;
59734;SDS011;64362;45.620;4.920;2024-01-27T00:35:11;1.70;;;1.00;;
59734;SDS011;64362;45.620;4.920;2024-01-27T00:37:39;2.38;;;1.40;;
59734;SDS011;64362;45.620;4.920;2024-01-27T00:40:09;2.25;;;0.95;;
59734;SDS011;64362;45.620;4.920;2024-01-27T00:42:35;2.20;;;1.23;;
59734;SDS011;64362;45.620;4.920;2024-01-27T00:45:00;2.70;;;1.50;;
59734;SDS011;64362;45.620;4.920;2024-01-27T00:47:26;2.15;;;1.00;;
59734;SDS011;64362;45.620;4.920;2024-01-27T00:49:51;2.35;;;1.30;;
59734;SDS011;64362;45.620;4.920;2024-01-27T00:52:20;2.80;;;1.13;;
59734;SDS011;64362;45.620;4.920;2024-01-27T00:54:46;2.58;;;1.38;;
59734;SDS011;64362;45.620;4.920;2024-01-27T00:57:11;1.85;;;1.13;;
59734;SDS011;64362;45.620;4.920;2024-01-27T00:59:37;2.42;;;1.10;;
59734;SDS011;64362;45.620;4.920;2024-01-27T01:02:02;2.17;;;1.13;;
59734;SDS011;64362;45.620;4.920;2024-01-27T01:04:28;2.83;;;1.20;;
59734;SDS011;64362;45.620;4.920;2024-01-27T01:06:54;2.22;;;1.00;;
59734;SDS011;64362;45.620;4.920;2024-01-27T01:09:19;2.63;;;1.00;;
59734;SDS011;64362;45.620;4.920;2024-01-27T01:11:45;2.17;;;1.02;;
59734;SDS011;64362;45.620;4.920;2024-01-27T01:14:10;1.92;;;1.15;;
59734;SDS011;64362;45.620;4.920;2024-01-27T01:16:36;2.25;;;1.13;;
59734;SDS011;64362;45.620;4.920;2024-01-27T01:19:01;3.45;;;1.10;;
59734;SDS011;64362;45.620;4.920;2024-01-27T01:21:27;2.20;;;1.10;;
59734;SDS011;64362;45.620;4.920;2024-01-27T01:23:53;1.83;;;1.10;;
59734;SDS011;64362;45.620;4.920;2024-01-27T01:26:19;2.47;;;1.10;;
59734;SDS011;64362;45.620;4.920;2024-01-27T01:28:44;2.50;;;1.27;;
59734;SDS011;64362;45.620;4.920;2024-01-27T01:31:10;2.35;;;1.00;;
59734;SDS011;64362;45.620;4.920;2024-01-27T01:33:35;3.00;;;1.30;;
59734;SDS011;64362;45.620;4.920;2024-01-27T01:36:01;2.33;;;1.30;;
59734;SDS011;64362;45.620;4.920;2024-01-27T01:38:26;2.50;;;1.10;;
59734;SDS011;64362;45.620;4.920;2024-01-27T01:40:51;2.72;;;1.17;;
59734;SDS011;64362;45.620;4.920;2024-01-27T01:43:17;2.92;;;1.10;;
59734;SDS011;64362;45.620;4.920;2024-01-27T01:45:42;1.98;;;0.93;;
59734;SDS011;64362;45.620;4.920;2024-01-27T01:48:08;1.92;;;1.00;;
59734;SDS011;64362;45.620;4.920;2024-01-27T01:50:34;2.30;;;1.10;;
59734;SDS011;64362;45.620;4.920;2024-01-27T01:52:59;1.50;;;0.95;;
59734;SDS011;64362;45.620;4.920;2024-01-27T01:55:26;2.05;;;1.10;;
59734;SDS011;64362;45.620;4.920;2024-01-27T01:57:51;2.30;;;1.10;;
59734;SDS011;64362;45.620;4.920;2024-01-27T02:00:17;3.33;;;1.10;;
59734;SDS011;64362;45.620;4.920;2024-01-27T02:02:43;2.38;;;1.17;;
59734;SDS011;64362;45.620;4.920;2024-01-27T02:05:10;2.70;;;0.98;;
59734;SDS011;64362;45.620;4.920;2024-01-27T02:07:36;2.60;;;1.10;;
59734;SDS011;64362;45.620;4.920;2024-01-27T02:10:02;1.92;;;1.10;;
59734;SDS011;64362;45.620;4.920;2024-01-27T02:12:27;2.88;;;1.20;;
59734;SDS011;64362;45.620;4.920;2024-01-27T02:14:53;2.15;;;1.00;;
59734;SDS011;64362;45.620;4.920;2024-01-27T02:17:18;2.05;;;1.23;;
59734;SDS011;64362;45.620;4.920;2024-01-27T02:19:44;2.45;;;0.98;;
59734;SDS011;64362;45.620;4.920;2024-01-27T02:22:09;2.53;;;1.10;;
59734;SDS011;64362;45.620;4.920;2024-01-27T02:24:35;1.60;;;1.10;;
59734;SDS011;64362;45.620;4.920;2024-01-27T02:27:00;2.35;;;1.05;;
59734;SDS011;64362;45.620;4.920;2024-01-27T02:29:25;1.80;;;1.10;;
59734;SDS011;64362;45.620;4.920;2024-01-27T02:31:52;1.80;;;1.00;;
59734;SDS011;64362;45.620;4.920;2024-01-27T02:34:18;1.90;;;1.20;;
59734;SDS011;64362;45.620;4.920;2024-01-27T02:36:44;2.60;;;1.00;;
59734;SDS011;64362;45.620;4.920;2024-01-27T02:39:09;2.17;;;1.10;;
59734;SDS011;64362;45.620;4.920;2024-01-27T02:41:35;1.38;;;0.98;;
59734;SDS011;64362;45.620;4.920;2024-01-27T02:44:07;1.90;;;1.10;;
59734;SDS011;64362;45.620;4.920;2024-01-27T02:46:32;1.60;;;0.98;;
59734;SDS011;64362;45.620;4.920;2024-01-27T02:48:58;1.65;;;0.90;;
59734;SDS011;64362;45.620;4.920;2024-01-27T02:51:23;2.05;;;1.00;;
59734;SDS011;64362;45.620;4.920;2024-01-27T02:53:49;1.45;;;1.00;;
59734;SDS011;64362;45.620;4.920;2024-01-27T02:56:16;1.73;;;1.15;;
59734;SDS011;64362;45.620;4.920;2024-01-27T02:58:42;2.28;;;0.93;;
59734;SDS011;64362;45.620;4.920;2024-01-27T03:01:07;2.15;;;0.80;;
59734;SDS011;64362;45.620;4.920;2024-01-27T03:03:33;1.45;;;0.93;;
59734;SDS011;64362;45.620;4.920;2024-01-27T03:05:58;2.35;;;1.20;;
59734;SDS011;64362;45.620;4.920;2024-01-27T03:08:24;1.20;;;0.82;;
59734;SDS011;64362;45.620;4.920;2024-01-27T03:10:49;3.17;;;1.23;;
59734;SDS011;64362;45.620;4.920;2024-01-27T03:13:15;1.77;;;1.05;;
59734;SDS011;64362;45.620;4.920;2024-01-27T03:15:40;2.10;;;1.23;;
59734;SDS011;64362;45.620;4.920;2024-01-27T03:18:08;1.30;;;0.82;;
59734;SDS011;64362;45.620;4.920;2024-01-27T03:20:34;1.27;;;0.85;;
59734;SDS011;64362;45.620;4.920;2024-01-27T03:22:59;2.17;;;0.82;;
59734;SDS011;64362;45.620;4.920;2024-01-27T03:25:24;1.95;;;0.88;;
59734;SDS011;64362;45.620;4.920;2024-01-27T03:27:51;1.80;;;0.90;;
59734;SDS011;64362;45.620;4.920;2024-01-27T03:30:17;2.05;;;1.00;;
59734;SDS011;64362;45.620;4.920;2024-01-27T03:32:42;1.75;;;0.90;;
59734;SDS011;64362;45.620;4.920;2024-01-27T03:35:08;2.35;;;0.98;;
59734;SDS011;64362;45.620;4.920;2024-01-27T03:37:33;1.40;;;0.70;;
59734;SDS011;64362;45.620;4.920;2024-01-27T03:39:59;2.35;;;0.90;;
59734;SDS011;64362;45.620;4.920;2024-01-27T03:42:25;1.55;;;0.73;;
59734;SDS011;64362;45.620;4.920;2024-01-27T03:44:51;2.00;;;1.10;;
59734;SDS011;64362;45.620;4.920;2024-01-27T03:47:17;1.33;;;0.85;;
59734;SDS011;64362;45.620;4.920;2024-01-27T03:49:43;2.08;;;1.00;;
59734;SDS011;64362;45.620;4.920;2024-01-27T03:52:10;1.65;;;0.93;;
59734;SDS011;64362;45.620;4.920;2024-01-27T03:54:37;2.03;;;0.88;;
59734;SDS011;64362;45.620;4.920;2024-01-27T03:57:03;2.40;;;1.02;;
59734;SDS011;64362;45.620;4.920;2024-01-27T03:59:29;1.48;;;0.80;;
59734;SDS011;64362;45.620;4.920;2024-01-27T04:01:54;1.95;;;0.95;;
59734;SDS011;64362;45.620;4.920;2024-01-27T04:04:20;1.45;;;0.70;;
59734;SDS011;64362;45.620;4.920;2024-01-27T04:06:46;1.70;;;0.85;;
59734;SDS011;64362;45.620;4.920;2024-01-27T04:09:11;1.42;;;0.80;;
59734;SDS011;64362;45.620;4.920;2024-01-27T04:11:37;2.80;;;0.80;;
59734;SDS011;64362;45.620;4.920;2024-01-27T04:14:03;1.80;;;0.95;;
59734;SDS011;64362;45.620;4.920;2024-01-27T04:16:29;1.90;;;0.90;;
59734;SDS011;64362;45.620;4.920;2024-01-27T04:18:55;1.13;;;0.75;;
59734;SDS011;64362;45.620;4.920;2024-01-27T04:21:21;1.45;;;0.80;;
59734;SDS011;64362;45.620;4.920;2024-01-27T04:23:46;2.38;;;0.93;;
59734;SDS011;64362;45.620;4.920;2024-01-27T04:26:12;2.05;;;0.90;;
59734;SDS011;64362;45.620;4.920;2024-01-27T04:28:37;1.73;;;0.77;;
59734;SDS011;64362;45.620;4.920;2024-01-27T04:31:03;3.08;;;1.10;;
59734;SDS011;64362;45.620;4.920;2024-01-27T04:33:29;1.58;;;0.73;;
59734;SDS011;64362;45.620;4.920;2024-01-27T04:35:54;1.92;;;0.93;;
59734;SDS011;64362;45.620;4.920;2024-01-27T04:38:19;1.40;;;0.80;;
59734;SDS011;64362;45.620;4.920;2024-01-27T04:40:45;1.20;;;0.90;;
59734;SDS011;64362;45.620;4.920;2024-01-27T04:43:14;1.63;;;0.80;;
59734;SDS011;64362;45.620;4.920;2024-01-27T04:45:43;1.75;;;0.90;;
59734;SDS011;64362;45.620;4.920;2024-01-27T04:48:09;1.98;;;0.90;;
59734;SDS011;64362;45.620;4.920;2024-01-27T04:50:35;1.50;;;0.75;;
59734;SDS011;64362;45.620;4.920;2024-01-27T04:53:00;2.05;;;0.93;;
59734;SDS011;64362;45.620;4.920;2024-01-27T04:55:26;1.15;;;0.60;;
59734;SDS011;64362;45.620;4.920;2024-01-27T04:57:52;1.42;;;0.80;;
59734;SDS011;64362;45.620;4.920;2024-01-27T05:00:18;1.80;;;0.82;;
59734;SDS011;64362;45.620;4.920;2024-01-27T05:02:44;2.10;;;1.10;;
59734;SDS011;64362;45.620;4.920;2024-01-27T05:05:10;1.38;;;0.60;;
59734;SDS011;64362;45.620;4.920;2024-01-27T05:07:37;2.13;;;0.80;;
59734;SDS011;64362;45.620;4.920;2024-01-27T05:10:03;1.52;;;0.70;;
59734;SDS011;64362;45.620;4.920;2024-01-27T05:12:29;1.25;;;0.70;;
59734;SDS011;64362;45.620;4.920;2024-01-27T05:14:54;1.25;;;0.63;;
59734;SDS011;64362;45.620;4.920;2024-01-27T05:17:19;1.52;;;0.70;;
59734;SDS011;64362;45.620;4.920;2024-01-27T05:19:45;0.85;;;0.60;;
59734;SDS011;64362;45.620;4.920;2024-01-27T05:22:11;2.10;;;0.70;;
59734;SDS011;64362;45.620;4.920;2024-01-27T05:24:36;1.75;;;0.90;;
59734;SDS011;64362;45.620;4.920;2024-01-27T05:27:02;1.10;;;0.60;;
59734;SDS011;64362;45.620;4.920;2024-01-27T05:29:27;1.40;;;0.80;;
59734;SDS011;64362;45.620;4.920;2024-01-27T05:31:53;1.20;;;0.70;;
59734;SDS011;64362;45.620;4.920;2024-01-27T05:34:19;1.30;;;0.73;;
59734;SDS011;64362;45.620;4.920;2024-01-27T05:36:44;1.80;;;0.90;;
59734;SDS011;64362;45.620;4.920;2024-01-27T05:39:10;1.33;;;0.73;;
59734;SDS011;64362;45.620;4.920;2024-01-27T05:41:35;1.20;;;0.73;;
59734;SDS011;64362;45.620;4.920;2024-01-27T05:44:01;1.25;;;0.65;;
59734;SDS011;64362;45.620;4.920;2024-01-27T05:46:26;1.85;;;0.80;;
59734;SDS011;64362;45.620;4.920;2024-01-27T05:48:52;1.10;;;0.57;;
59734;SDS011;64362;45.620;4.920;2024-01-27T05:51:22;1.08;;;0.73;;
59734;SDS011;64362;45.620;4.920;2024-01-27T05:53:48;1.67;;;0.60;;
59734;SDS011;64362;45.620;4.920;2024-01-27T05:56:14;2.30;;;0.70;;
59734;SDS011;64362;45.620;4.920;2024-01-27T05:58:40;1.55;;;0.80;;
59734;SDS011;64362;45.620;4.920;2024-01-27T06:01:05;1.42;;;0.80;;
59734;SDS011;64362;45.620;4.920;2024-01-27T06:03:31;1.30;;;0.70;;
59734;SDS011;64362;45.620;4.920;2024-01-27T06:05:57;0.95;;;0.68;;
59734;SDS011;64362;45.620;4.920;2024-01-27T06:08:22;1.23;;;0.60;;
59734;SDS011;64362;45.620;4.920;2024-01-27T06:10:47;1.38;;;0.70;;
59734;SDS011;64362;45.620;4.920;2024-01-27T06:13:13;1.15;;;0.55;;
59734;SDS011;64362;45.620;4.920;2024-01-27T06:15:38;1.55;;;0.65;;
59734;SDS011;64362;45.620;4.920;2024-01-27T06:18:04;1.23;;;0.70;;
59734;SDS011;64362;45.620;4.920;2024-01-27T06:20:30;1.20;;;0.50;;
59734;SDS011;64362;45.620;4.920;2024-01-27T06:22:55;2.08;;;0.77;;
59734;SDS011;64362;45.620;4.920;2024-01-27T06:25:21;1.63;;;0.75;;
59734;SDS011;64362;45.620;4.920;2024-01-27T06:27:46;0.95;;;0.50;;
59734;SDS011;64362;45.620;4.920;2024-01-27T06:30:12;0.93;;;0.60;;
59734;SDS011;64362;45.620;4.920;2024-01-27T06:32:38;1.35;;;0.73;;
59734;SDS011;64362;45.620;4.920;2024-01-27T06:35:04;0.98;;;0.60;;
59734;SDS011;64362;45.620;4.920;2024-01-27T06:37:30;2.03;;;0.85;;
59734;SDS011;64362;45.620;4.920;2024-01-27T06:39:58;1.55;;;0.68;;
59734;SDS011;64362;45.620;4.920;2024-01-27T06:42:23;2.10;;;0.68;;
59734;SDS011;64362;45.620;4.920;2024-01-27T06:44:49;1.00;;;0.63;;
59734;SDS011;64362;45.620;4.920;2024-01-27T06:47:15;2.70;;;0.73;;
59734;SDS011;64362;45.620;4.920;2024-01-27T06:49:40;3.78;;;0.90;;
59734;SDS011;64362;45.620;4.920;2024-01-27T06:52:09;5.90;;;1.15;;
59734;SDS011;64362;45.620;4.920;2024-01-27T06:54:35;4.38;;;0.80;;
59734;SDS011;64362;45.620;4.920;2024-01-27T06:57:01;1.73;;;0.80;;
59734;SDS011;64362;45.620;4.920;2024-01-27T06:59:27;4.25;;;1.10;;
59734;SDS011;64362;45.620;4.920;2024-01-27T07:01:53;2.03;;;0.68;;
59734;SDS011;64362;45.620;4.920;2024-01-27T07:04:18;1.42;;;0.88;;
59734;SDS011;64362;45.620;4.920;2024-01-27T07:06:44;7.07;;;1.10;;
59734;SDS011;64362;45.620;4.920;2024-01-27T07:09:09;5.55;;;1.20;;
59734;SDS011;64362;45.620;4.920;2024-01-27T07:11:36;4.22;;;0.93;;
59734;SDS011;64362;45.620;4.920;2024-01-27T07:14:02;2.42;;;0.80;;
59734;SDS011;64362;45.620;4.920;2024-01-27T07:16:28;4.22;;;1.10;;
59734;SDS011;64362;45.620;4.920;2024-01-27T07:18:53;3.00;;;0.80;;
59734;SDS011;64362;45.620;4.920;2024-01-27T07:21:19;2.60;;;0.93;;
59734;SDS011;64362;45.620;4.920;2024-01-27T07:23:44;4.32;;;1.00;;
59734;SDS011;64362;45.620;4.920;2024-01-27T07:26:10;3.75;;;1.13;;
59734;SDS011;64362;45.620;4.920;2024-01-27T07:28:36;1.98;;;1.00;;
59734;SDS011;64362;45.620;4.920;2024-01-27T07:31:02;4.00;;;0.80;;
59734;SDS011;64362;45.620;4.920;2024-01-27T07:33:27;2.05;;;0.75;;
59734;SDS011;64362;45.620;4.920;2024-01-27T07:35:53;4.80;;;1.25;;
59734;SDS011;64362;45.620;4.920;2024-01-27T07:38:19;3.88;;;1.00;;
59734;SDS011;64362;45.620;4.920;2024-01-27T07:40:45;2.15;;;0.75;;
59734;SDS011;64362;45.620;4.920;2024-01-27T07:43:10;1.83;;;0.70;;
59734;SDS011;64362;45.620;4.920;2024-01-27T07:45:35;4.65;;;1.42;;
59734;SDS011;64362;45.620;4.920;2024-01-27T07:48:01;4.95;;;1.00;;
59734;SDS011;64362;45.620;4.920;2024-01-27T07:50:28;4.63;;;1.00;;
59734;SDS011;64362;45.620;4.920;2024-01-27T07:52:54;6.20;;;1.27;;
59734;SDS011;64362;45.620;4.920;2024-01-27T07:55:19;8.95;;;1.25;;
59734;SDS011;64362;45.620;4.920;2024-01-27T07:57:45;4.07;;;1.50;;
59734;SDS011;64362;45.620;4.920;2024-01-27T08:00:10;3.47;;;0.80;;
59734;SDS011;64362;45.620;4.920;2024-01-27T08:02:36;8.30;;;1.23;;
59734;SDS011;64362;45.620;4.920;2024-01-27T08:05:02;4.55;;;1.02;;
59734;SDS011;64362;45.620;4.920;2024-01-27T08:07:29;4.85;;;1.13;;
59734;SDS011;64362;45.620;4.920;2024-01-27T08:09:54;3.80;;;1.20;;
59734;SDS011;64362;45.620;4.920;2024-01-27T08:12:22;6.45;;;1.20;;
59734;SDS011;64362;45.620;4.920;2024-01-27T08:14:48;4.72;;;1.40;;
59734;SDS011;64362;45.620;4.920;2024-01-27T08:17:13;8.43;;;1.50;;
59734;SDS011;64362;45.620;4.920;2024-01-27T08:19:39;6.40;;;1.35;;
59734;SDS011;64362;45.620;4.920;2024-01-27T08:22:04;6.70;;;1.35;;
59734;SDS011;64362;45.620;4.920;2024-01-27T08:24:30;6.60;;;1.35;;
59734;SDS011;64362;45.620;4.920;2024-01-27T08:26:56;3.20;;;1.05;;
59734;SDS011;64362;45.620;4.920;2024-01-27T08:29:23;2.80;;;1.00;;
59734;SDS011;64362;45.620;4.920;2024-01-27T08:31:48;5.30;;;1.30;;
59734;SDS011;64362;45.620;4.920;2024-01-27T08:34:14;3.88;;;1.05;;
59734;SDS011;64362;45.620;4.920;2024-01-27T08:36:39;4.13;;;0.90;;
59734;SDS011;64362;45.620;4.920;2024-01-27T08:39:05;4.32;;;1.30;;
59734;SDS011;64362;45.620;4.920;2024-01-27T08:41:32;3.47;;;1.00;;
59734;SDS011;64362;45.620;4.920;2024-01-27T08:43:58;8.90;;;1.25;;
59734;SDS011;64362;45.620;4.920;2024-01-27T08:46:23;5.15;;;1.08;;
59734;SDS011;64362;45.620;4.920;2024-01-27T08:48:49;4.25;;;1.17;;
59734;SDS011;64362;45.620;4.920;2024-01-27T08:51:15;3.90;;;1.20;;
59734;SDS011;64362;45.620;4.920;2024-01-27T08:53:42;3.15;;;0.90;;
59734;SDS011;64362;45.620;4.920;2024-01-27T08:56:13;7.55;;;1.20;;
59734;SDS011;64362;45.620;4.920;2024-01-27T08:58:40;4.60;;;1.10;;
59734;SDS011;64362;45.620;4.920;2024-01-27T09:01:06;4.38;;;1.05;;
59734;SDS011;64362;45.620;4.920;2024-01-27T09:03:34;4.90;;;1.20;;
59734;SDS011;64362;45.620;4.920;2024-01-27T09:05:59;2.53;;;1.00;;
59734;SDS011;64362;45.620;4.920;2024-01-27T09:08:24;4.93;;;1.20;;
59734;SDS011;64362;45.620;4.920;2024-01-27T09:10:50;5.68;;;0.80;;
59734;SDS011;64362;45.620;4.920;2024-01-27T09:13:16;6.88;;;1.30;;
59734;SDS011;64362;45.620;4.920;2024-01-27T09:15:42;6.18;;;1.25;;
59734;SDS011;64362;45.620;4.920;2024-01-27T09:18:07;3.58;;;1.00;;
59734;SDS011;64362;45.620;4.920;2024-01-27T09:20:33;2.90;;;1.00;;
59734;SDS011;64362;45.620;4.920;2024-01-27T09:22:58;5.40;;;1.20;;
59734;SDS011;64362;45.620;4.920;2024-01-27T09:25:24;7.72;;;1.23;;
59734;SDS011;64362;45.620;4.920;2024-01-27T09:27:52;4.90;;;1.20;;
59734;SDS011;64362;45.620;4.920;2024-01-27T09:30:18;7.85;;;1.48;;
59734;SDS011;64362;45.620;4.920;2024-01-27T09:32:43;7.50;;;1.25;;
59734;SDS011;64362;45.620;4.920;2024-01-27T09:35:09;6.25;;;1.15;;
59734;SDS011;64362;45.620;4.920;2024-01-27T09:37:34;5.65;;;1.95;;
59734;SDS011;64362;45.620;4.920;2024-01-27T09:40:00;6.05;;;1.45;;
59734;SDS011;64362;45.620;4.920;2024-01-27T09:42:27;5.22;;;1.38;;
59734;SDS011;64362;45.620;4.920;2024-01-27T09:44:53;6.22;;;1.60;;
59734;SDS011;64362;45.620;4.920;2024-01-27T09:47:19;5.35;;;1.10;;
59734;SDS011;64362;45.620;4.920;2024-01-27T09:49:46;6.07;;;1.80;;
59734;SDS011;64362;45.620;4.920;2024-01-27T09:52:12;5.25;;;1.35;;
59734;SDS011;64362;45.620;4.920;2024-01-27T09:54:39;5.78;;;1.70;;
59734;SDS011;64362;45.620;4.920;2024-01-27T09:57:05;3.20;;;1.30;;
59734;SDS011;64362;45.620;4.920;2024-01-27T09:59:31;4.68;;;1.45;;
59734;SDS011;64362;45.620;4.920;2024-01-27T10:01:58;3.58;;;1.13;;
59734;SDS011;64362;45.620;4.920;2024-01-27T10:04:24;4.53;;;1.20;;
59734;SDS011;64362;45.620;4.920;2024-01-27T10:06:50;4.75;;;1.20;;
59734;SDS011;64362;45.620;4.920;2024-01-27T10:09:16;7.55;;;2.08;;
59734;SDS011;64362;45.620;4.920;2024-01-27T10:11:43;5.78;;;1.23;;
59734;SDS011;64362;45.620;4.920;2024-01-27T10:14:10;3.67;;;1.38;;
59734;SDS011;64362;45.620;4.920;2024-01-27T10:16:45;6.38;;;1.10;;
59734;SDS011;64362;45.620;4.920;2024-01-27T10:19:14;7.38;;;1.63;;
59734;SDS011;64362;45.620;4.920;2024-01-27T10:21:42;3.22;;;0.90;;
59734;SDS011;64362;45.620;4.920;2024-01-27T10:24:08;6.03;;;1.30;;
59734;SDS011;64362;45.620;4.920;2024-01-27T10:26:34;3.10;;;1.00;;
59734;SDS011;64362;45.620;4.920;2024-01-27T10:29:00;3.60;;;1.40;;
59734;SDS011;64362;45.620;4.920;2024-01-27T10:31:27;8.57;;;2.80;;
59734;SDS011;64362;45.620;4.920;2024-01-27T10:33:53;18.95;;;4.10;;
59734;SDS011;64362;45.620;4.920;2024-01-27T10:36:21;33.83;;;5.63;;
59734;SDS011;64362;45.620;4.920;2024-01-27T10:38:49;51.45;;;8.88;;
59734;SDS011;64362;45.620;4.920;2024-01-27T10:41:24;47.78;;;8.27;;
59734;SDS011;64362;45.620;4.920;2024-01-27T10:43:51;34.28;;;7.32;;
59734;SDS011;64362;45.620;4.920;2024-01-27T10:46:20;42.10;;;7.95;;
59734;SDS011;64362;45.620;4.920;2024-01-27T10:48:52;36.60;;;6.80;;
59734;SDS011;64362;45.620;4.920;2024-01-27T10:51:22;36.72;;;6.55;;
59734;SDS011;64362;45.620;4.920;2024-01-27T10:53:52;25.80;;;5.13;;
59734;SDS011;64362;45.620;4.920;2024-01-27T10:56:18;30.17;;;6.97;;
59734;SDS011;64362;45.620;4.920;2024-01-27T10:58:44;34.55;;;7.40;;
59734;SDS011;64362;45.620;4.920;2024-01-27T11:01:12;31.00;;;5.72;;
59734;SDS011;64362;45.620;4.920;2024-01-27T11:03:38;31.88;;;6.22;;
59734;SDS011;64362;45.620;4.920;2024-01-27T11:06:08;38.97;;;7.00;;
59734;SDS011;64362;45.620;4.920;2024-01-27T11:08:33;41.33;;;7.38;;
59734;SDS011;64362;45.620;4.920;2024-01-27T11:11:00;38.08;;;6.78;;
59734;SDS011;64362;45.620;4.920;2024-01-27T11:13:26;35.20;;;7.00;;
59734;SDS011;64362;45.620;4.920;2024-01-27T11:15:56;37.20;;;7.45;;
59734;SDS011;64362;45.620;4.920;2024-01-27T11:18:21;38.90;;;7.57;;
59734;SDS011;64362;45.620;4.920;2024-01-27T11:20:47;41.63;;;7.43;;
59734;SDS011;64362;45.620;4.920;2024-01-27T11:23:13;37.35;;;7.53;;
59734;SDS011;64362;45.620;4.920;2024-01-27T11:25:41;31.80;;;7.68;;
59734;SDS011;64362;45.620;4.920;2024-01-27T11:28:15;41.42;;;7.13;;
59734;SDS011;64362;45.620;4.920;2024-01-27T11:30:48;33.45;;;8.10;;
59734;SDS011;64362;45.620;4.920;2024-01-27T11:33:14;37.03;;;5.82;;
59734;SDS011;64362;45.620;4.920;2024-01-27T11:35:40;36.22;;;6.55;;
59734;SDS011;64362;45.620;4.920;2024-01-27T11:38:05;34.28;;;7.03;;
59734;SDS011;64362;45.620;4.920;2024-01-27T11:40:31;30.95;;;6.13;;
59734;SDS011;64362;45.620;4.920;2024-01-27T11:42:57;32.85;;;7.32;;
59734;SDS011;64362;45.620;4.920;2024-01-27T11:45:24;32.85;;;6.15;;
59734;SDS011;64362;45.620;4.920;2024-01-27T11:47:49;34.03;;;6.78;;
59734;SDS011;64362;45.620;4.920;2024-01-27T11:50:18;26.25;;;5.55;;
59734;SDS011;64362;45.620;4.920;2024-01-27T11:52:44;28.13;;;5.75;;
59734;SDS011;64362;45.620;4.920;2024-01-27T11:55:10;30.73;;;6.50;;
59734;SDS011;64362;45.620;4.920;2024-01-27T11:57:35;22.30;;;5.78;;
59734;SDS011;64362;45.620;4.920;2024-01-27T12:00:01;21.08;;;5.10;;
59734;SDS011;64362;45.620;4.920;2024-01-27T12:02:26;27.52;;;6.25;;
59734;SDS011;64362;45.620;4.920;2024-01-27T12:04:52;24.05;;;4.85;;
59734;SDS011;64362;45.620;4.920;2024-01-27T12:07:18;20.77;;;4.90;;
59734;SDS011;64362;45.620;4.920;2024-01-27T12:09:50;19.98;;;4.60;;
59734;SDS011;64362;45.620;4.920;2024-01-27T12:12:16;19.50;;;4.88;;
59734;SDS011;64362;45.620;4.920;2024-01-27T12:14:45;23.20;;;5.00;;
59734;SDS011;64362;45.620;4.920;2024-01-27T12:17:11;24.33;;;4.80;;
59734;SDS011;64362;45.620;4.920;2024-01-27T12:19:37;18.48;;;4.40;;
59734;SDS011;64362;45.620;4.920;2024-01-27T12:22:04;16.17;;;4.20;;
59734;SDS011;64362;45.620;4.920;2024-01-27T12:24:30;16.52;;;3.75;;
59734;SDS011;64362;45.620;4.920;2024-01-27T12:26:57;17.42;;;4.38;;
59734;SDS011;64362;45.620;4.920;2024-01-27T12:29:23;16.92;;;4.53;;
59734;SDS011;64362;45.620;4.920;2024-01-27T12:31:49;19.75;;;4.38;;
59734;SDS011;64362;45.620;4.920;2024-01-27T12:34:14;20.63;;;3.72;;
59734;SDS011;64362;45.620;4.920;2024-01-27T12:36:40;18.55;;;3.88;;
59734;SDS011;64362;45.620;4.920;2024-01-27T12:39:09;19.83;;;3.92;;
59734;SDS011;64362;45.620;4.920;2024-01-27T12:41:34;21.25;;;3.97;;
59734;SDS011;64362;45.620;4.920;2024-01-27T12:44:00;20.13;;;3.55;;
59734;SDS011;64362;45.620;4.920;2024-01-27T12:46:26;17.17;;;3.95;;
59734;SDS011;64362;45.620;4.920;2024-01-27T12:48:52;14.48;;;3.83;;
59734;SDS011;64362;45.620;4.920;2024-01-27T12:51:18;21.05;;;3.83;;
59734;SDS011;64362;45.620;4.920;2024-01-27T12:53:44;17.30;;;3.80;;
59734;SDS011;64362;45.620;4.920;2024-01-27T12:56:10;20.45;;;3.63;;
59734;SDS011;64362;45.620;4.920;2024-01-27T12:58:39;21.67;;;4.22;;
59734;SDS011;64362;45.620;4.920;2024-01-27T13:01:05;22.70;;;4.10;;
59734;SDS011;64362;45.620;4.920;2024-01-27T13:03:31;13.23;;;4.03;;
59734;SDS011;64362;45.620;4.920;2024-01-27T13:05:57;15.85;;;3.70;;
59734;SDS011;64362;45.620;4.920;2024-01-27T13:08:23;19.50;;;3.75;;
59734;SDS011;64362;45.620;4.920;2024-01-27T13:10:48;19.08;;;4.05;;
59734;SDS011;64362;45.620;4.920;2024-01-27T13:13:14;19.80;;;3.55;;
59734;SDS011;64362;45.620;4.920;2024-01-27T13:15:40;16.73;;;3.58;;
59734;SDS011;64362;45.620;4.920;2024-01-27T13:18:05;17.45;;;3.10;;
59734;SDS011;64362;45.620;4.920;2024-01-27T13:20:31;13.95;;;3.15;;
59734;SDS011;64362;45.620;4.920;2024-01-27T13:22:57;11.15;;;2.97;;
59734;SDS011;64362;45.620;4.920;2024-01-27T13:25:23;14.07;;;3.15;;
59734;SDS011;64362;45.620;4.920;2024-01-27T13:27:49;14.25;;;3.20;;
59734;SDS011;64362;45.620;4.920;2024-01-27T13:30:14;13.98;;;3.30;;
59734;SDS011;64362;45.620;4.920;2024-01-27T13:32:42;16.40;;;3.42;;
59734;SDS011;64362;45.620;4.920;2024-01-27T13:35:08;15.82;;;3.38;;
59734;SDS011;64362;45.620;4.920;2024-01-27T13:37:34;16.00;;;2.97;;
59734;SDS011;64362;45.620;4.920;2024-01-27T13:40:00;9.85;;;2.88;;
59734;SDS011;64362;45.620;4.920;2024-01-27T13:42:26;10.98;;;2.80;;
59734;SDS011;64362;45.620;4.920;2024-01-27T13:44:51;15.90;;;3.30;;
59734;SDS011;64362;45.620;4.920;2024-01-27T13:47:17;8.38;;;2.47;;
59734;SDS011;64362;45.620;4.920;2024-01-27T13:49:43;10.57;;;2.50;;
59734;SDS011;64362;45.620;4.920;2024-01-27T13:52:08;12.48;;;2.60;;
59734;SDS011;64362;45.620;4.920;2024-01-27T13:54:34;10.07;;;2.53;;
59734;SDS011;64362;45.620;4.920;2024-01-27T13:57:00;15.35;;;2.70;;
59734;SDS011;64362;45.620;4.920;2024-01-27T13:59:26;10.13;;;2.70;;
59734;SDS011;64362;45.620;4.920;2024-01-27T14:01:52;15.60;;;2.13;;
59734;SDS011;64362;45.620;4.920;2024-01-27T14:04:18;14.70;;;4.20;;
59734;SDS011;64362;45.620;4.920;2024-01-27T14:06:44;13.40;;;2.47;;
59734;SDS011;64362;45.620;4.920;2024-01-27T14:09:09;10.00;;;2.13;;
59734;SDS011;64362;45.620;4.920;2024-01-27T14:11:35;13.52;;;2.50;;
59734;SDS011;64362;45.620;4.920;2024-01-27T14:14:00;18.77;;;3.60;;
59734;SDS011;64362;45.620;4.920;2024-01-27T14:16:26;22.75;;;4.32;;
59734;SDS011;64362;45.620;4.920;2024-01-27T14:18:51;27.95;;;5.63;;
59734;SDS011;64362;45.620;4.920;2024-01-27T14:21:17;22.83;;;4.13;;
59734;SDS011;64362;45.620;4.920;2024-01-27T14:23:42;18.75;;;4.03;;
59734;SDS011;64362;45.620;4.920;2024-01-27T14:26:08;35.85;;;6.03;;
59734;SDS011;64362;45.620;4.920;2024-01-27T14:28:40;24.35;;;5.45;;
59734;SDS011;64362;45.620;4.920;2024-01-27T14:31:06;29.45;;;4.53;;
59734;SDS011;64362;45.620;4.920;2024-01-27T14:33:32;25.05;;;4.30;;
59734;SDS011;64362;45.620;4.920;2024-01-27T14:35:58;26.38;;;4.90;;